Aurora M — 2CQV3 — position and weather

sailwx.info

Track history (hours):
 
Tides and Currents Weather Stations Pressure Air Temp Water Temp Dewpoint Dewpoint Depression Visibility Wind Speed Wind Dir Waves Ship Positions

Aurora M

Last reported at 2017-Aug-24 11:25 UTC. Time now 2017-Nov-21 02:45 UTC.
Position N 14°20' W 060°51'.
Warning: this ship's position is months out of date.

Length 22 m.

Type: Pleasure craft. MMSI: 235074996.

Date/timePositionNaut miles runAvg speedWind from/ knotsBaromVisibWave heightAir tempDewpointWater temp
2017-Aug-24 11:25N 14°20' W 060°51'3 8.3
2017-Aug-24 11:00N 14°22' W 060°53'4 7.8
2017-Aug-24 10:30N 14°26' W 060°54'0 0.0
2017-Aug-23 21:02N 14°26' W 060°54'0 0.1
2017-Aug-23 20:59N 14°26' W 060°54'0 0.0
2017-Aug-23 20:29N 14°26' W 060°54'0 0.0
2017-Aug-23 19:59N 14°26' W 060°54'1 2.3
2017-Aug-23 19:30N 14°26' W 060°55'132 4.5
2017-Aug-22 14:13N 16°26' W 061°51'2 8.8
2017-Aug-22 13:56N 16°29' W 061°51'4 8.7
2017-Aug-22 13:30N 16°33' W 061°51'5 9.2
2017-Aug-22 13:00N 16°37' W 061°50'5 9.4
2017-Aug-22 12:30N 16°42' W 061°50'5 9.3
2017-Aug-22 12:00N 16°47' W 061°49'5 9.5
2017-Aug-22 11:30N 16°51' W 061°48'5 9.3
2017-Aug-22 11:00N 16°56' W 061°47'4 8.7
2017-Aug-22 10:30N 17°00' W 061°47'1 0.1
2017-Aug-22 01:51N 17°01' W 061°47'0 0.0
2017-Aug-22 01:30N 17°01' W 061°47'0 0.0
2017-Aug-22 01:00N 17°01' W 061°47'0 0.0
2017-Aug-22 00:30N 17°01' W 061°47'0 0.0
2017-Aug-22 00:00N 17°01' W 061°47'0 0.0
2017-Aug-21 23:30N 17°01' W 061°47'0 0.0
2017-Aug-21 23:00N 17°01' W 061°47'0 0.0
2017-Aug-21 22:30N 17°01' W 061°47'0 0.0
2017-Aug-21 22:00N 17°01' W 061°47'0 0.0
2017-Aug-21 21:30N 17°01' W 061°47'0 0.0
2017-Aug-21 21:00N 17°01' W 061°47'0 0.0
2017-Aug-21 20:30N 17°01' W 061°47'0 0.0
2017-Aug-21 20:00N 17°01' W 061°47'0 0.0
2017-Aug-21 19:30N 17°01' W 061°47'0 0.0
2017-Aug-21 19:00N 17°01' W 061°47'0 0.0
2017-Aug-21 18:28N 17°01' W 061°47'0 0.0
2017-Aug-21 17:58N 17°01' W 061°47'0 0.0
2017-Aug-21 17:25N 17°01' W 061°47'0 0.0
2017-Aug-21 16:58N 17°01' W 061°47'0 0.0
2017-Aug-21 16:28N 17°01' W 061°47'0 0.0
2017-Aug-21 15:58N 17°01' W 061°47'0 0.0
2017-Aug-21 15:28N 17°01' W 061°47'2 3.3
2017-Aug-21 15:00N 17°00' W 061°48'1 2.8
2017-Aug-21 14:30N 17°01' W 061°47'0 0.3
2017-Aug-21 13:58N 17°01' W 061°47'0 0.0
2017-Aug-21 13:28N 17°01' W 061°47'0 0.0
2017-Aug-21 13:00N 17°01' W 061°47'0 0.0
2017-Aug-21 12:29N 17°01' W 061°47'  
2017-Aug-16 17:19N 17°01' W 061°46'  
Track history (hours):
 
Tides and Currents Weather Stations Pressure Air Temp Water Temp Dewpoint Dewpoint Depression Visibility Wind Speed Wind Dir Waves Ship Positions

Aurora M

Last reported at 2017-Aug-24 11:25 UTC. Time now 2017-Nov-21 02:45 UTC.
Position N 14°20' W 060°51'.
Warning: this ship's position is months out of date.

Length 22 m.

Type: Pleasure craft. MMSI: 235074996.

Date/timePositionNaut miles runAvg speedWind from/ knotsBaromVisibWave heightAir tempDewpointWater temp
2017-Aug-24 11:25N 14°20' W 060°51'3 8.3
2017-Aug-24 11:00N 14°22' W 060°53'4 7.8
2017-Aug-24 10:30N 14°26' W 060°54'0 0.0
2017-Aug-23 21:02N 14°26' W 060°54'0 0.1
2017-Aug-23 20:59N 14°26' W 060°54'0 0.0
2017-Aug-23 20:29N 14°26' W 060°54'0 0.0
2017-Aug-23 19:59N 14°26' W 060°54'1 2.3
2017-Aug-23 19:30N 14°26' W 060°55'132 4.5
2017-Aug-22 14:13N 16°26' W 061°51'2 8.8
2017-Aug-22 13:56N 16°29' W 061°51'4 8.7
2017-Aug-22 13:30N 16°33' W 061°51'5 9.2
2017-Aug-22 13:00N 16°37' W 061°50'5 9.4
2017-Aug-22 12:30N 16°42' W 061°50'5 9.3
2017-Aug-22 12:00N 16°47' W 061°49'5 9.5
2017-Aug-22 11:30N 16°51' W 061°48'5 9.3
2017-Aug-22 11:00N 16°56' W 061°47'4 8.7
2017-Aug-22 10:30N 17°00' W 061°47'1 0.1
2017-Aug-22 01:51N 17°01' W 061°47'0 0.0
2017-Aug-22 01:30N 17°01' W 061°47'0 0.0
2017-Aug-22 01:00N 17°01' W 061°47'0 0.0
2017-Aug-22 00:30N 17°01' W 061°47'0 0.0
2017-Aug-22 00:00N 17°01' W 061°47'0 0.0
2017-Aug-21 23:30N 17°01' W 061°47'0 0.0
2017-Aug-21 23:00N 17°01' W 061°47'0 0.0
2017-Aug-21 22:30N 17°01' W 061°47'0 0.0
2017-Aug-21 22:00N 17°01' W 061°47'0 0.0
2017-Aug-21 21:30N 17°01' W 061°47'0 0.0
2017-Aug-21 21:00N 17°01' W 061°47'0 0.0
2017-Aug-21 20:30N 17°01' W 061°47'0 0.0
2017-Aug-21 20:00N 17°01' W 061°47'0 0.0
2017-Aug-21 19:30N 17°01' W 061°47'0 0.0
2017-Aug-21 19:00N 17°01' W 061°47'0 0.0
2017-Aug-21 18:28N 17°01' W 061°47'0 0.0
2017-Aug-21 17:58N 17°01' W 061°47'0 0.0
2017-Aug-21 17:25N 17°01' W 061°47'0 0.0
2017-Aug-21 16:58N 17°01' W 061°47'0 0.0
2017-Aug-21 16:28N 17°01' W 061°47'0 0.0
2017-Aug-21 15:58N 17°01' W 061°47'0 0.0
2017-Aug-21 15:28N 17°01' W 061°47'2 3.3
2017-Aug-21 15:00N 17°00' W 061°48'1 2.8
2017-Aug-21 14:30N 17°01' W 061°47'0 0.3
2017-Aug-21 13:58N 17°01' W 061°47'0 0.0
2017-Aug-21 13:28N 17°01' W 061°47'0 0.0
2017-Aug-21 13:00N 17°01' W 061°47'0 0.0
2017-Aug-21 12:29N 17°01' W 061°47'  
2017-Aug-16 17:19N 17°01' W 061°46'  

Dump ship's entire track history